<?xml version="1.0" encoding="UTF-8" standalone="no" ?>
<gpx xmlns="http://www.topografix.com/GPX/1/1" xmlns:xsi="http://www.w3.org/2001/XMLSchema-instance" xsi:schemaLocation="http://www.topografix.com/GPX/1/1 http://www.topografix.com/GPX/1/1/gpx.xsd" version="1.1" creator="VisuGPX - https://www.visugpx.com">
  <metadata>
    <name>Reze_Autour_8-19km</name>
    <desc><![CDATA[gnerando idor:5792578_5792726_5814453_5825877_6470772_8005623_8320604_9624624__]]></desc>
  </metadata>
  <trk>
    <name><![CDATA[Reze_Autour_19.3km-8320604]]></name>
    <extensions>
      <line xmlns="http://www.topografix.com/GPX/gpx_style/0/2">
        <color>0000FF</color>
        <width>4</width>
      </line>
    </extensions>
    <trkseg>
      <trkpt lat="47.19275" lon="-1.54698">
        <ele>8</ele>
        <time>2023-11-11T18:52:58Z</time>
      </trkpt>
      <trkpt lat="47.19407" lon="-1.54551">
        <ele>8</ele>
        <time>2023-11-11T18:56:39Z</time>
      </trkpt>
      <trkpt lat="47.19485" lon="-1.54555">
        <ele>5</ele>
        <time>2023-11-11T18:58:23Z</time>
      </trkpt>
      <trkpt lat="47.19515" lon="-1.545">
        <ele>5</ele>
        <time>2023-11-11T18:59:27Z</time>
      </trkpt>
      <trkpt lat="47.19585" lon="-1.54654">
        <ele>4</ele>
        <time>2023-11-11T19:02:15Z</time>
      </trkpt>
      <trkpt lat="47.19587" lon="-1.5471">
        <ele>4</ele>
        <time>2023-11-11T19:03:06Z</time>
      </trkpt>
      <trkpt lat="47.19675" lon="-1.54856">
        <ele>5</ele>
        <time>2023-11-11T19:06:03Z</time>
      </trkpt>
      <trkpt lat="47.19642" lon="-1.55466">
        <ele>3</ele>
        <time>2023-11-11T19:15:18Z</time>
      </trkpt>
      <trkpt lat="47.19696" lon="-1.56225">
        <ele>2</ele>
        <time>2023-11-11T19:26:50Z</time>
      </trkpt>
      <trkpt lat="47.19638" lon="-1.56237">
        <ele>4</ele>
        <time>2023-11-11T19:28:08Z</time>
      </trkpt>
      <trkpt lat="47.19588" lon="-1.57178">
        <ele>7</ele>
        <time>2023-11-11T19:42:24Z</time>
      </trkpt>
      <trkpt lat="47.19675" lon="-1.57238">
        <ele>6</ele>
        <time>2023-11-11T19:44:32Z</time>
      </trkpt>
      <trkpt lat="47.19572" lon="-1.57821">
        <ele>5</ele>
        <time>2023-11-11T19:53:38Z</time>
      </trkpt>
      <trkpt lat="47.19469" lon="-1.57809">
        <ele>5</ele>
        <time>2023-11-11T19:55:56Z</time>
      </trkpt>
      <trkpt lat="47.19531" lon="-1.58052">
        <ele>3</ele>
        <time>2023-11-11T19:59:51Z</time>
      </trkpt>
      <trkpt lat="47.19523" lon="-1.58234">
        <ele>4</ele>
        <time>2023-11-11T20:02:37Z</time>
      </trkpt>
      <trkpt lat="47.19329" lon="-1.5864">
        <ele>6</ele>
        <time>2023-11-11T20:10:07Z</time>
      </trkpt>
      <trkpt lat="47.19271" lon="-1.58519">
        <ele>5</ele>
        <time>2023-11-11T20:12:21Z</time>
      </trkpt>
      <trkpt lat="47.19341" lon="-1.58398">
        <ele>6</ele>
        <time>2023-11-11T20:14:45Z</time>
      </trkpt>
      <trkpt lat="47.19358" lon="-1.58282">
        <ele>7</ele>
        <time>2023-11-11T20:16:33Z</time>
      </trkpt>
      <trkpt lat="47.19411" lon="-1.58118">
        <ele>6</ele>
        <time>2023-11-11T20:19:17Z</time>
      </trkpt>
      <trkpt lat="47.19588" lon="-1.57304">
        <ele>7</ele>
        <time>2023-11-11T20:32:12Z</time>
      </trkpt>
      <trkpt lat="47.19636" lon="-1.56281">
        <ele>4</ele>
        <time>2023-11-11T20:47:42Z</time>
      </trkpt>
      <trkpt lat="47.19658" lon="-1.55833">
        <ele>6</ele>
        <time>2023-11-11T20:54:30Z</time>
      </trkpt>
      <trkpt lat="47.19614" lon="-1.55602">
        <ele>5</ele>
        <time>2023-11-11T20:58:07Z</time>
      </trkpt>
      <trkpt lat="47.1955" lon="-1.54942">
        <ele>7</ele>
        <time>2023-11-11T21:08:12Z</time>
      </trkpt>
      <trkpt lat="47.19359" lon="-1.54917">
        <ele>8</ele>
        <time>2023-11-11T21:12:28Z</time>
      </trkpt>
      <trkpt lat="47.19226" lon="-1.54917">
        <ele>8</ele>
        <time>2023-11-11T21:15:25Z</time>
      </trkpt>
      <trkpt lat="47.1918" lon="-1.5492">
        <ele>11</ele>
        <time>2023-11-11T21:16:26Z</time>
      </trkpt>
      <trkpt lat="47.19092" lon="-1.55064">
        <ele>13</ele>
        <time>2023-11-11T21:19:22Z</time>
      </trkpt>
      <trkpt lat="47.19104" lon="-1.55119">
        <ele>12</ele>
        <time>2023-11-11T21:20:14Z</time>
      </trkpt>
      <trkpt lat="47.19305" lon="-1.55">
        <ele>8</ele>
        <time>2023-11-11T21:25:04Z</time>
      </trkpt>
      <trkpt lat="47.19224" lon="-1.55393">
        <ele>7</ele>
        <time>2023-11-11T21:31:16Z</time>
      </trkpt>
      <trkpt lat="47.19204" lon="-1.55725">
        <ele>8</ele>
        <time>2023-11-11T21:36:18Z</time>
      </trkpt>
      <trkpt lat="47.19231" lon="-1.56169">
        <ele>8</ele>
        <time>2023-11-11T21:43:02Z</time>
      </trkpt>
      <trkpt lat="47.19212" lon="-1.56288">
        <ele>8</ele>
        <time>2023-11-11T21:44:53Z</time>
      </trkpt>
      <trkpt lat="47.19234" lon="-1.56429">
        <ele>8</ele>
        <time>2023-11-11T21:47:05Z</time>
      </trkpt>
      <trkpt lat="47.19209" lon="-1.56854">
        <ele>6</ele>
        <time>2023-11-11T21:53:31Z</time>
      </trkpt>
      <trkpt lat="47.19216" lon="-1.5688">
        <ele>6</ele>
        <time>2023-11-11T21:53:57Z</time>
      </trkpt>
      <trkpt lat="47.19161" lon="-1.56904">
        <ele>8</ele>
        <time>2023-11-11T21:55:13Z</time>
      </trkpt>
      <trkpt lat="47.19148" lon="-1.57018">
        <ele>9</ele>
        <time>2023-11-11T21:56:58Z</time>
      </trkpt>
      <trkpt lat="47.19253" lon="-1.57049">
        <ele>5</ele>
        <time>2023-11-11T21:59:21Z</time>
      </trkpt>
      <trkpt lat="47.19256" lon="-1.57095">
        <ele>6</ele>
        <time>2023-11-11T22:00:03Z</time>
      </trkpt>
      <trkpt lat="47.19229" lon="-1.57159">
        <ele>8</ele>
        <time>2023-11-11T22:01:11Z</time>
      </trkpt>
      <trkpt lat="47.19222" lon="-1.57259">
        <ele>8</ele>
        <time>2023-11-11T22:02:42Z</time>
      </trkpt>
      <trkpt lat="47.19144" lon="-1.57236">
        <ele>9</ele>
        <time>2023-11-11T22:04:29Z</time>
      </trkpt>
      <trkpt lat="47.19019" lon="-1.57608">
        <ele>6</ele>
        <time>2023-11-11T22:10:45Z</time>
      </trkpt>
      <trkpt lat="47.18849" lon="-1.57521">
        <ele>9</ele>
        <time>2023-11-11T22:14:45Z</time>
      </trkpt>
      <trkpt lat="47.18752" lon="-1.57424">
        <ele>9</ele>
        <time>2023-11-11T22:17:22Z</time>
      </trkpt>
      <trkpt lat="47.18674" lon="-1.57407">
        <ele>11</ele>
        <time>2023-11-11T22:19:07Z</time>
      </trkpt>
      <trkpt lat="47.18649" lon="-1.57371">
        <ele>13</ele>
        <time>2023-11-11T22:19:53Z</time>
      </trkpt>
      <trkpt lat="47.18509" lon="-1.57371">
        <ele>16</ele>
        <time>2023-11-11T22:23:00Z</time>
      </trkpt>
      <trkpt lat="47.1849" lon="-1.57409">
        <ele>15</ele>
        <time>2023-11-11T22:23:43Z</time>
      </trkpt>
      <trkpt lat="47.18462" lon="-1.57412">
        <ele>16</ele>
        <time>2023-11-11T22:24:21Z</time>
      </trkpt>
      <trkpt lat="47.1844" lon="-1.57399">
        <ele>17</ele>
        <time>2023-11-11T22:24:52Z</time>
      </trkpt>
      <trkpt lat="47.18332" lon="-1.57424">
        <ele>18</ele>
        <time>2023-11-11T22:27:18Z</time>
      </trkpt>
      <trkpt lat="47.18271" lon="-1.57447">
        <ele>19</ele>
        <time>2023-11-11T22:28:42Z</time>
      </trkpt>
      <trkpt lat="47.18218" lon="-1.57396">
        <ele>19</ele>
        <time>2023-11-11T22:30:07Z</time>
      </trkpt>
      <trkpt lat="47.18124" lon="-1.57361">
        <ele>19</ele>
        <time>2023-11-11T22:32:16Z</time>
      </trkpt>
      <trkpt lat="47.17998" lon="-1.57418">
        <ele>17</ele>
        <time>2023-11-11T22:35:12Z</time>
      </trkpt>
      <trkpt lat="47.1787" lon="-1.57358">
        <ele>22</ele>
        <time>2023-11-11T22:38:11Z</time>
      </trkpt>
      <trkpt lat="47.17843" lon="-1.57263">
        <ele>24</ele>
        <time>2023-11-11T22:39:45Z</time>
      </trkpt>
      <trkpt lat="47.17555" lon="-1.56839">
        <ele>26</ele>
        <time>2023-11-11T22:48:48Z</time>
      </trkpt>
      <trkpt lat="47.1755" lon="-1.56803">
        <ele>26</ele>
        <time>2023-11-11T22:49:22Z</time>
      </trkpt>
      <trkpt lat="47.17554" lon="-1.56692">
        <ele>27</ele>
        <time>2023-11-11T22:51:02Z</time>
      </trkpt>
      <trkpt lat="47.17475" lon="-1.56607">
        <ele>26</ele>
        <time>2023-11-11T22:53:13Z</time>
      </trkpt>
      <trkpt lat="47.1742" lon="-1.56603">
        <ele>25</ele>
        <time>2023-11-11T22:54:27Z</time>
      </trkpt>
      <trkpt lat="47.17387" lon="-1.56522">
        <ele>26</ele>
        <time>2023-11-11T22:55:52Z</time>
      </trkpt>
      <trkpt lat="47.17354" lon="-1.5653">
        <ele>26</ele>
        <time>2023-11-11T22:56:37Z</time>
      </trkpt>
      <trkpt lat="47.17267" lon="-1.56446">
        <ele>24</ele>
        <time>2023-11-11T22:58:56Z</time>
      </trkpt>
      <trkpt lat="47.17215" lon="-1.56331">
        <ele>28</ele>
        <time>2023-11-11T23:01:01Z</time>
      </trkpt>
      <trkpt lat="47.1715" lon="-1.56357">
        <ele>26</ele>
        <time>2023-11-11T23:02:31Z</time>
      </trkpt>
      <trkpt lat="47.17084" lon="-1.56244">
        <ele>25</ele>
        <time>2023-11-11T23:04:46Z</time>
      </trkpt>
      <trkpt lat="47.17057" lon="-1.56247">
        <ele>25</ele>
        <time>2023-11-11T23:05:22Z</time>
      </trkpt>
      <trkpt lat="47.17041" lon="-1.56261">
        <ele>25</ele>
        <time>2023-11-11T23:05:47Z</time>
      </trkpt>
      <trkpt lat="47.17033" lon="-1.56246">
        <ele>26</ele>
        <time>2023-11-11T23:06:04Z</time>
      </trkpt>
      <trkpt lat="47.16987" lon="-1.56249">
        <ele>26</ele>
        <time>2023-11-11T23:07:06Z</time>
      </trkpt>
      <trkpt lat="47.16972" lon="-1.56202">
        <ele>26</ele>
        <time>2023-11-11T23:07:53Z</time>
      </trkpt>
      <trkpt lat="47.16952" lon="-1.56194">
        <ele>26</ele>
        <time>2023-11-11T23:08:21Z</time>
      </trkpt>
      <trkpt lat="47.16937" lon="-1.56147">
        <ele>26</ele>
        <time>2023-11-11T23:09:08Z</time>
      </trkpt>
      <trkpt lat="47.16843" lon="-1.56023">
        <ele>27</ele>
        <time>2023-11-11T23:11:56Z</time>
      </trkpt>
      <trkpt lat="47.16798" lon="-1.55921">
        <ele>25</ele>
        <time>2023-11-11T23:13:46Z</time>
      </trkpt>
      <trkpt lat="47.168" lon="-1.5587">
        <ele>26</ele>
        <time>2023-11-11T23:14:33Z</time>
      </trkpt>
      <trkpt lat="47.16761" lon="-1.55712">
        <ele>28</ele>
        <time>2023-11-11T23:17:05Z</time>
      </trkpt>
      <trkpt lat="47.16706" lon="-1.55633">
        <ele>31</ele>
        <time>2023-11-11T23:18:48Z</time>
      </trkpt>
      <trkpt lat="47.16676" lon="-1.55527">
        <ele>32</ele>
        <time>2023-11-11T23:20:32Z</time>
      </trkpt>
      <trkpt lat="47.16633" lon="-1.55304">
        <ele>33</ele>
        <time>2023-11-11T23:24:02Z</time>
      </trkpt>
      <trkpt lat="47.16643" lon="-1.5519">
        <ele>35</ele>
        <time>2023-11-11T23:25:47Z</time>
      </trkpt>
      <trkpt lat="47.16709" lon="-1.55228">
        <ele>36</ele>
        <time>2023-11-11T23:27:21Z</time>
      </trkpt>
      <trkpt lat="47.16914" lon="-1.55128">
        <ele>38</ele>
        <time>2023-11-11T23:32:09Z</time>
      </trkpt>
      <trkpt lat="47.17061" lon="-1.54906">
        <ele>41</ele>
        <time>2023-11-11T23:36:51Z</time>
      </trkpt>
      <trkpt lat="47.17156" lon="-1.54763">
        <ele>37</ele>
        <time>2023-11-11T23:39:52Z</time>
      </trkpt>
      <trkpt lat="47.17262" lon="-1.54625">
        <ele>35</ele>
        <time>2023-11-11T23:43:01Z</time>
      </trkpt>
      <trkpt lat="47.17244" lon="-1.54602">
        <ele>36</ele>
        <time>2023-11-11T23:43:33Z</time>
      </trkpt>
      <trkpt lat="47.17264" lon="-1.54559">
        <ele>36</ele>
        <time>2023-11-11T23:44:20Z</time>
      </trkpt>
      <trkpt lat="47.17283" lon="-1.54472">
        <ele>35</ele>
        <time>2023-11-11T23:45:43Z</time>
      </trkpt>
      <trkpt lat="47.17293" lon="-1.54342">
        <ele>35</ele>
        <time>2023-11-11T23:47:42Z</time>
      </trkpt>
      <trkpt lat="47.1732" lon="-1.54344">
        <ele>34</ele>
        <time>2023-11-11T23:48:18Z</time>
      </trkpt>
      <trkpt lat="47.17354" lon="-1.54212">
        <ele>34</ele>
        <time>2023-11-11T23:50:26Z</time>
      </trkpt>
      <trkpt lat="47.17372" lon="-1.54154">
        <ele>33</ele>
        <time>2023-11-11T23:51:23Z</time>
      </trkpt>
      <trkpt lat="47.17392" lon="-1.54168">
        <ele>33</ele>
        <time>2023-11-11T23:51:53Z</time>
      </trkpt>
      <trkpt lat="47.1739" lon="-1.54087">
        <ele>32</ele>
        <time>2023-11-11T23:53:07Z</time>
      </trkpt>
      <trkpt lat="47.17405" lon="-1.54099">
        <ele>32</ele>
        <time>2023-11-11T23:53:29Z</time>
      </trkpt>
      <trkpt lat="47.17436" lon="-1.53976">
        <ele>31</ele>
        <time>2023-11-11T23:55:28Z</time>
      </trkpt>
      <trkpt lat="47.17466" lon="-1.53882">
        <ele>30</ele>
        <time>2023-11-11T23:57:03Z</time>
      </trkpt>
      <trkpt lat="47.17391" lon="-1.53746">
        <ele>28</ele>
        <time>2023-11-11T23:59:41Z</time>
      </trkpt>
      <trkpt lat="47.17437" lon="-1.53594">
        <ele>27</ele>
        <time>2023-11-12T00:02:12Z</time>
      </trkpt>
      <trkpt lat="47.17412" lon="-1.53539">
        <ele>27</ele>
        <time>2023-11-12T00:03:12Z</time>
      </trkpt>
      <trkpt lat="47.17428" lon="-1.5351">
        <ele>27</ele>
        <time>2023-11-12T00:03:46Z</time>
      </trkpt>
      <trkpt lat="47.17402" lon="-1.5339">
        <ele>28</ele>
        <time>2023-11-12T00:05:41Z</time>
      </trkpt>
      <trkpt lat="47.17409" lon="-1.53332">
        <ele>28</ele>
        <time>2023-11-12T00:06:34Z</time>
      </trkpt>
      <trkpt lat="47.17401" lon="-1.53312">
        <ele>28</ele>
        <time>2023-11-12T00:06:55Z</time>
      </trkpt>
      <trkpt lat="47.17439" lon="-1.53194">
        <ele>25</ele>
        <time>2023-11-12T00:08:53Z</time>
      </trkpt>
      <trkpt lat="47.1757" lon="-1.53093">
        <ele>23</ele>
        <time>2023-11-12T00:12:11Z</time>
      </trkpt>
      <trkpt lat="47.1768" lon="-1.53075">
        <ele>23</ele>
        <time>2023-11-12T00:14:39Z</time>
      </trkpt>
      <trkpt lat="47.17695" lon="-1.53005">
        <ele>24</ele>
        <time>2023-11-12T00:15:45Z</time>
      </trkpt>
      <trkpt lat="47.178" lon="-1.52941">
        <ele>20</ele>
        <time>2023-11-12T00:18:17Z</time>
      </trkpt>
      <trkpt lat="47.17856" lon="-1.52923">
        <ele>19</ele>
        <time>2023-11-12T00:19:33Z</time>
      </trkpt>
      <trkpt lat="47.17932" lon="-1.52808">
        <ele>14</ele>
        <time>2023-11-12T00:21:59Z</time>
      </trkpt>
      <trkpt lat="47.18031" lon="-1.52659">
        <ele>9</ele>
        <time>2023-11-12T00:25:08Z</time>
      </trkpt>
      <trkpt lat="47.18027" lon="-1.52623">
        <ele>8</ele>
        <time>2023-11-12T00:25:41Z</time>
      </trkpt>
      <trkpt lat="47.18084" lon="-1.52565">
        <ele>7</ele>
        <time>2023-11-12T00:27:13Z</time>
      </trkpt>
      <trkpt lat="47.1814" lon="-1.52571">
        <ele>6</ele>
        <time>2023-11-12T00:28:28Z</time>
      </trkpt>
      <trkpt lat="47.18188" lon="-1.5279">
        <ele>8</ele>
        <time>2023-11-12T00:31:57Z</time>
      </trkpt>
      <trkpt lat="47.18181" lon="-1.52832">
        <ele>8</ele>
        <time>2023-11-12T00:32:36Z</time>
      </trkpt>
      <trkpt lat="47.18266" lon="-1.53087">
        <ele>6</ele>
        <time>2023-11-12T00:36:54Z</time>
      </trkpt>
      <trkpt lat="47.18252" lon="-1.53175">
        <ele>8</ele>
        <time>2023-11-12T00:38:16Z</time>
      </trkpt>
      <trkpt lat="47.18285" lon="-1.53164">
        <ele>7</ele>
        <time>2023-11-12T00:39:01Z</time>
      </trkpt>
      <trkpt lat="47.18347" lon="-1.53249">
        <ele>6</ele>
        <time>2023-11-12T00:40:54Z</time>
      </trkpt>
      <trkpt lat="47.18503" lon="-1.53431">
        <ele>11</ele>
        <time>2023-11-12T00:45:20Z</time>
      </trkpt>
      <trkpt lat="47.18691" lon="-1.53606">
        <ele>11</ele>
        <time>2023-11-12T00:50:17Z</time>
      </trkpt>
      <trkpt lat="47.19007" lon="-1.53727">
        <ele>7</ele>
        <time>2023-11-12T00:57:32Z</time>
      </trkpt>
      <trkpt lat="47.19159" lon="-1.53925">
        <ele>7</ele>
        <time>2023-11-12T01:02:03Z</time>
      </trkpt>
      <trkpt lat="47.1934" lon="-1.54285">
        <ele>7</ele>
        <time>2023-11-12T01:08:49Z</time>
      </trkpt>
      <trkpt lat="47.19468" lon="-1.54431">
        <ele>6</ele>
        <time>2023-11-12T01:12:25Z</time>
      </trkpt>
      <trkpt lat="47.19475" lon="-1.54457">
        <ele>6</ele>
        <time>2023-11-12T01:12:51Z</time>
      </trkpt>
      <trkpt lat="47.19424" lon="-1.54544">
        <ele>8</ele>
        <time>2023-11-12T01:14:35Z</time>
      </trkpt>
      <trkpt lat="47.19275" lon="-1.54717">
        <ele>8</ele>
        <time>2023-11-12T01:18:48Z</time>
      </trkpt>
    </trkseg>
  </trk>
</gpx>